createdAt,value
2018-06-10T00:00:14.131Z,91.10
2018-06-10T00:02:41.077Z,91.10
2018-06-10T00:05:08.026Z,91.50
2018-06-10T00:07:34.960Z,92.10
2018-06-10T00:10:01.918Z,92.50
2018-06-10T00:12:28.903Z,92.80
2018-06-10T00:14:55.833Z,93.10
2018-06-10T00:17:22.792Z,93.00
2018-06-10T00:19:49.772Z,93.50
2018-06-10T00:22:16.730Z,93.40
2018-06-10T00:24:43.666Z,93.60
2018-06-10T00:27:10.632Z,94.10
2018-06-10T00:29:37.578Z,94.20
2018-06-10T00:32:04.628Z,94.00
2018-06-10T00:34:31.622Z,93.90
2018-06-10T00:36:58.549Z,94.10
2018-06-10T00:39:25.490Z,94.10
2018-06-10T00:41:52.463Z,94.20
2018-06-10T00:44:19.386Z,94.30
2018-06-10T00:46:46.326Z,94.60
2018-06-10T00:49:13.291Z,94.30
2018-06-10T00:51:40.212Z,94.10
2018-06-10T00:54:07.167Z,93.90
2018-06-10T00:56:45.941Z,93.70
2018-06-10T00:59:12.869Z,93.60
2018-06-10T01:01:39.795Z,93.00
2018-06-10T01:04:06.737Z,92.80
2018-06-10T01:06:33.744Z,93.10
2018-06-10T01:09:00.726Z,93.80
2018-06-10T01:11:27.637Z,94.30
2018-06-10T01:13:54.594Z,94.90
2018-06-10T01:16:21.534Z,96.00
2018-06-10T01:18:48.488Z,96.40
2018-06-10T01:21:16.014Z,96.50
2018-06-10T01:23:42.952Z,96.70
2018-06-10T01:26:09.927Z,96.60
2018-06-10T01:28:36.857Z,97.20
2018-06-10T01:31:03.806Z,97.40
2018-06-10T01:33:30.756Z,97.60
2018-06-10T01:35:57.742Z,97.40
2018-06-10T01:38:24.680Z,98.70
2018-06-10T01:40:51.654Z,99.20
2018-06-10T01:43:18.583Z,99.70
2018-06-10T01:45:45.535Z,99.90
2018-06-10T01:48:12.498Z,99.90
2018-06-10T01:50:39.432Z,99.90
2018-06-10T01:53:06.392Z,99.90
2018-06-10T01:55:33.400Z,99.90
2018-06-10T01:58:00.450Z,99.90
2018-06-10T02:00:27.391Z,99.90
2018-06-10T02:02:54.366Z,99.90
2018-06-10T02:05:21.305Z,99.90
2018-06-10T02:07:48.241Z,99.90
2018-06-10T02:10:15.224Z,99.90
2018-06-10T02:12:42.161Z,99.90
2018-06-10T02:15:09.096Z,99.90
2018-06-10T02:17:36.027Z,99.90
2018-06-10T02:20:03.052Z,99.90
2018-06-10T02:22:30.006Z,99.90
2018-06-10T02:24:56.957Z,99.90
2018-06-10T02:27:23.886Z,99.90
2018-06-10T02:29:50.820Z,99.90
2018-06-10T02:32:17.802Z,99.90
2018-06-10T02:34:44.728Z,99.90
2018-06-10T02:37:11.657Z,99.90
2018-06-10T02:39:38.614Z,99.90
2018-06-10T02:42:05.552Z,99.90
2018-06-10T02:44:32.500Z,99.90
2018-06-10T02:46:59.467Z,99.90
2018-06-10T02:49:26.398Z,99.90
2018-06-10T02:51:53.378Z,99.90
2018-06-10T02:54:20.342Z,99.90
2018-06-10T02:56:47.288Z,99.90
2018-06-10T02:59:14.273Z,99.90
2018-06-10T03:01:41.250Z,99.90
2018-06-10T03:04:08.177Z,99.90
2018-06-10T03:06:35.126Z,99.90
2018-06-10T03:09:02.149Z,99.90
2018-06-10T03:11:29.126Z,99.90
2018-06-10T03:13:56.025Z,99.90
2018-06-10T03:16:24.595Z,99.90
2018-06-10T03:18:51.540Z,99.90
2018-06-10T03:21:18.483Z,99.90
2018-06-10T03:23:45.424Z,99.90
2018-06-10T03:26:12.374Z,99.90
2018-06-10T03:28:39.313Z,99.90
2018-06-10T03:31:06.286Z,99.90
2018-06-10T03:33:33.234Z,99.90
2018-06-10T03:36:00.156Z,99.90
2018-06-10T03:38:27.123Z,99.90
2018-06-10T03:40:54.068Z,99.90
2018-06-10T03:43:21.009Z,99.90
2018-06-10T03:45:48.003Z,99.90
2018-06-10T03:48:14.937Z,99.90
2018-06-10T03:50:41.872Z,99.90
2018-06-10T03:53:08.806Z,99.90
2018-06-10T03:55:36.702Z,99.90
2018-06-10T03:58:03.650Z,99.90
2018-06-10T04:00:30.615Z,99.90
2018-06-10T04:02:57.572Z,99.90
2018-06-10T04:05:24.527Z,99.90
2018-06-10T04:07:51.474Z,99.90
2018-06-10T04:10:18.418Z,99.90
2018-06-10T04:12:45.356Z,99.90
2018-06-10T04:15:12.317Z,99.90
2018-06-10T04:17:39.308Z,99.90
2018-06-10T04:20:06.267Z,99.90
2018-06-10T04:22:33.212Z,99.90
2018-06-10T04:25:00.163Z,99.90
2018-06-10T04:27:27.106Z,99.90
2018-06-10T04:29:54.067Z,99.00
2018-06-10T04:32:21.021Z,98.40
2018-06-10T04:34:47.991Z,98.10
2018-06-10T04:37:14.928Z,98.60
2018-06-10T04:39:41.945Z,97.80
2018-06-10T04:42:08.886Z,97.30
2018-06-10T04:44:35.840Z,96.80
2018-06-10T04:47:02.756Z,98.20
2018-06-10T04:49:29.708Z,98.10
2018-06-10T04:51:56.678Z,94.90
2018-06-10T04:54:23.636Z,91.80
2018-06-10T04:56:50.566Z,88.50
2018-06-10T04:59:17.760Z,87.60
2018-06-10T05:01:44.697Z,87.30
2018-06-10T05:04:11.629Z,86.40
2018-06-10T05:06:38.593Z,84.10
2018-06-10T05:09:05.821Z,83.10
2018-06-10T05:11:32.739Z,80.20
2018-06-10T05:13:59.684Z,80.40
2018-06-10T05:16:26.673Z,79.90
2018-06-10T05:18:54.237Z,78.30
2018-06-10T05:21:21.191Z,78.00
2018-06-10T05:23:48.128Z,79.10
2018-06-10T05:26:15.053Z,82.30
2018-06-10T05:28:42.005Z,83.00
2018-06-10T05:31:08.998Z,82.80
2018-06-10T05:33:35.993Z,83.20
2018-06-10T05:36:02.957Z,83.50
2018-06-10T05:38:30.568Z,84.00
2018-06-10T05:40:57.527Z,84.10
2018-06-10T05:43:24.485Z,85.30
2018-06-10T05:45:51.471Z,85.50
2018-06-10T05:48:18.413Z,84.00
2018-06-10T05:50:45.342Z,84.10
2018-06-10T05:53:12.254Z,84.20
2018-06-10T05:55:39.193Z,82.10
2018-06-10T05:58:06.151Z,81.30
2018-06-10T06:00:33.072Z,79.70
2018-06-10T06:03:00.008Z,79.20
2018-06-10T06:05:26.967Z,78.60
2018-06-10T06:07:53.897Z,79.50
2018-06-10T06:10:20.829Z,78.50
2018-06-10T06:12:47.764Z,77.80
2018-06-10T06:15:14.697Z,76.00
2018-06-10T06:17:41.607Z,76.80
2018-06-10T06:20:08.647Z,75.90
2018-06-10T06:22:35.569Z,73.20
2018-06-10T06:25:02.495Z,68.50
2018-06-10T06:27:29.550Z,65.40
2018-06-10T06:29:56.408Z,59.90
2018-06-10T06:32:23.318Z,56.50
2018-06-10T06:34:50.277Z,55.50
2018-06-10T06:37:17.258Z,54.30
2018-06-10T06:39:44.212Z,51.90
2018-06-10T06:42:11.144Z,49.20
2018-06-10T06:44:38.076Z,48.40
2018-06-10T06:47:05.055Z,49.50
2018-06-10T06:49:31.996Z,45.90
2018-06-10T06:51:58.967Z,47.70
2018-06-10T06:54:25.891Z,46.30
2018-06-10T06:56:52.833Z,44.00
2018-06-10T06:59:19.771Z,42.70
2018-06-10T07:06:40.828Z,43.90
2018-06-10T07:09:07.832Z,43.70
2018-06-10T07:11:35.536Z,44.00
2018-06-10T07:14:02.502Z,45.40
2018-06-10T07:16:29.428Z,45.90
2018-06-10T07:18:56.391Z,44.80
2018-06-10T07:21:23.340Z,44.70
2018-06-10T07:23:50.318Z,45.70
2018-06-10T07:26:17.290Z,46.60
2018-06-10T07:28:44.242Z,45.60
2018-06-10T08:05:30.324Z,41.90
2018-06-10T08:07:57.243Z,40.30
2018-06-10T08:10:24.470Z,40.20
2018-06-10T08:12:51.426Z,39.80
2018-06-10T08:15:18.368Z,39.40
2018-06-10T08:17:45.312Z,37.20
2018-06-10T08:20:12.235Z,37.10
2018-06-10T08:22:39.740Z,36.80
2018-06-10T08:25:06.718Z,37.00
2018-06-10T08:27:33.648Z,37.40
2018-06-10T08:30:00.635Z,37.40
2018-06-10T08:32:27.566Z,37.30
2018-06-10T08:34:54.502Z,37.20
2018-06-10T08:37:21.442Z,38.30
2018-06-10T08:39:48.399Z,38.50
2018-06-10T08:42:15.430Z,37.90
2018-06-10T08:44:42.453Z,36.60
2018-06-10T08:47:09.459Z,38.00
2018-06-10T08:49:36.403Z,35.70
2018-06-10T12:30:12.390Z,26.70
2018-06-10T12:32:39.327Z,55.00
2018-06-10T12:35:06.357Z,62.80
2018-06-10T12:37:33.329Z,65.00
2018-06-10T12:40:00.331Z,69.70
2018-06-10T12:42:27.283Z,75.40
2018-06-10T12:44:54.247Z,84.30
2018-06-10T12:47:21.251Z,82.70
2018-06-10T12:49:48.214Z,88.30
2018-06-10T12:52:15.234Z,79.20
2018-06-10T12:54:42.191Z,74.60
2018-06-10T12:57:09.164Z,65.10
2018-06-10T12:59:36.144Z,60.60
2018-06-10T13:02:03.144Z,56.70
2018-06-10T13:04:30.126Z,52.20
2018-06-10T13:06:57.107Z,49.90
2018-06-10T13:09:24.031Z,47.80
2018-06-10T13:11:51.004Z,47.40
2018-06-10T13:26:33.253Z,46.90
2018-06-10T13:29:00.565Z,43.90
2018-06-10T13:31:27.574Z,43.20
2018-06-10T13:33:54.568Z,43.10
2018-06-10T13:36:21.496Z,45.10
2018-06-10T13:38:48.438Z,45.30
2018-06-10T13:41:16.309Z,46.90
2018-06-10T13:43:43.325Z,47.30
2018-06-10T13:46:10.301Z,46.90
2018-06-10T13:48:37.301Z,47.00
2018-06-10T13:51:04.234Z,47.00
2018-06-10T14:10:40.799Z,50.10
2018-06-10T14:13:07.818Z,50.30
2018-06-10T14:15:34.776Z,51.60
2018-06-10T14:18:01.720Z,52.30
2018-06-10T14:20:28.687Z,52.50
2018-06-10T14:22:55.702Z,52.00
2018-06-10T14:25:22.887Z,52.80
2018-06-10T14:27:49.831Z,52.40
2018-06-10T14:30:16.809Z,52.90
2018-06-10T14:32:43.728Z,53.10
2018-06-10T14:35:10.670Z,54.60
2018-06-10T14:37:37.613Z,56.00
2018-06-10T14:40:04.719Z,57.30
2018-06-10T14:42:32.213Z,58.00
2018-06-10T14:44:59.188Z,58.30
2018-06-10T14:47:26.106Z,58.10
2018-06-10T14:49:53.089Z,58.80
2018-06-10T14:52:20.030Z,59.90
2018-06-10T14:54:46.956Z,60.40
2018-06-10T14:57:13.898Z,61.20
2018-06-10T14:59:40.875Z,61.40
2018-06-10T15:02:07.867Z,62.60
2018-06-10T15:04:34.852Z,63.50
2018-06-10T15:07:01.813Z,66.70
2018-06-10T15:09:28.764Z,84.80
2018-06-10T15:11:55.760Z,90.50
2018-06-10T15:14:22.750Z,94.30
2018-06-10T15:16:49.733Z,97.50
2018-06-10T15:19:16.735Z,99.90
2018-06-10T15:21:43.684Z,99.90
2018-06-10T15:24:10.741Z,99.90
2018-06-10T15:26:37.735Z,99.90
2018-06-10T15:29:04.820Z,99.90
2018-06-10T15:31:31.798Z,99.90
2018-06-10T15:33:58.789Z,99.90
2018-06-10T15:36:25.740Z,99.90
2018-06-10T15:38:52.676Z,99.90
2018-06-10T15:41:19.633Z,99.90
2018-06-10T15:46:13.719Z,99.90
2018-06-10T15:48:41.371Z,99.90
2018-06-10T15:51:08.329Z,99.90
2018-06-10T15:53:35.252Z,99.90
2018-06-10T15:56:02.252Z,99.90
2018-06-10T15:58:29.196Z,99.90
2018-06-10T16:00:56.163Z,99.90
2018-06-10T16:03:23.106Z,99.90
2018-06-10T16:05:50.044Z,99.90
2018-06-10T16:08:17.010Z,99.90
2018-06-10T16:10:44.065Z,99.90
2018-06-10T16:13:11.093Z,99.90
2018-06-10T16:15:38.069Z,99.90
2018-06-10T16:18:05.093Z,99.90
2018-06-10T16:20:32.041Z,99.90
2018-06-10T16:22:59.087Z,99.90
2018-06-10T16:25:26.084Z,99.90
2018-06-10T16:27:53.035Z,99.90
2018-06-10T16:30:20.035Z,99.90
2018-06-10T16:32:47.009Z,99.90
2018-06-10T16:35:13.973Z,99.90
2018-06-10T16:37:40.914Z,99.90
2018-06-10T16:40:07.887Z,99.90
2018-06-10T16:42:34.930Z,98.50
2018-06-10T16:45:01.889Z,99.40
2018-06-10T16:47:28.816Z,98.90
2018-06-10T16:49:55.776Z,99.90
2018-06-10T16:52:22.715Z,99.20
2018-06-10T16:54:49.699Z,95.00
2018-06-10T16:57:16.649Z,94.40
2018-06-10T16:59:43.645Z,97.00
2018-06-10T17:02:10.647Z,96.40
2018-06-10T17:04:37.601Z,95.00
2018-06-10T17:07:04.568Z,94.90
2018-06-10T17:09:31.535Z,97.80
2018-06-10T17:11:58.498Z,97.00
2018-06-10T17:14:25.511Z,99.90
2018-06-10T17:16:52.499Z,99.10
2018-06-10T17:19:19.510Z,99.90
2018-06-10T17:21:46.485Z,99.90
2018-06-10T17:24:13.441Z,99.90
2018-06-10T17:26:40.374Z,99.90
2018-06-10T17:29:07.401Z,99.90
2018-06-10T17:31:34.368Z,99.90
2018-06-10T17:34:01.712Z,99.90
2018-06-10T17:36:28.683Z,99.90
2018-06-10T17:38:55.628Z,99.90
2018-06-10T17:41:22.574Z,99.90
2018-06-10T17:43:49.697Z,99.90
2018-06-10T17:46:16.691Z,99.90
2018-06-10T17:48:43.620Z,99.90
2018-06-10T17:51:10.589Z,99.00
2018-06-10T17:53:37.571Z,99.90
2018-06-10T17:56:04.608Z,99.70
2018-06-10T17:58:31.590Z,98.80
2018-06-10T18:00:58.637Z,99.00
2018-06-10T18:03:25.552Z,97.90
2018-06-10T18:05:52.511Z,95.50
2018-06-10T18:08:19.494Z,97.20
2018-06-10T18:10:46.511Z,95.00
2018-06-10T18:13:13.450Z,97.00
2018-06-10T18:15:40.402Z,96.00
2018-06-10T18:18:07.500Z,98.60
2018-06-10T18:20:34.458Z,99.90
2018-06-10T18:23:01.509Z,99.90
2018-06-10T18:25:28.579Z,99.90
2018-06-10T18:27:55.535Z,99.90
2018-06-10T18:30:22.478Z,99.90
2018-06-10T18:32:49.412Z,99.90
2018-06-10T18:35:16.523Z,99.90
2018-06-10T18:37:43.452Z,99.90
2018-06-10T18:40:10.392Z,99.90
2018-06-10T18:42:37.323Z,99.90
2018-06-10T18:45:04.317Z,99.90
2018-06-10T18:47:31.245Z,99.90
2018-06-10T18:49:58.277Z,99.90
2018-06-10T18:52:25.433Z,99.90
2018-06-10T18:54:52.369Z,99.90
2018-06-10T18:57:19.316Z,99.90
2018-06-10T18:59:46.338Z,99.90
2018-06-10T19:02:13.276Z,99.90
2018-06-10T19:04:40.263Z,99.90
2018-06-10T19:07:07.218Z,99.90
2018-06-10T19:09:34.191Z,99.90
2018-06-10T19:12:01.163Z,99.90
2018-06-10T19:14:28.084Z,99.90
2018-06-10T19:16:55.679Z,99.90
2018-06-10T19:19:22.649Z,99.90
2018-06-10T19:21:49.603Z,99.90
2018-06-10T19:24:16.642Z,99.90
2018-06-10T19:26:43.606Z,99.90
2018-06-10T19:29:10.600Z,99.90
2018-06-10T19:31:37.590Z,99.90
2018-06-10T19:34:04.631Z,99.90
2018-06-10T19:36:31.746Z,99.90
2018-06-10T19:38:58.701Z,99.90
2018-06-10T19:41:25.656Z,99.90
2018-06-10T19:43:52.602Z,99.90
2018-06-10T19:46:19.536Z,99.90
2018-06-10T19:48:46.487Z,99.90
2018-06-10T19:51:13.448Z,99.90
2018-06-10T19:53:40.447Z,99.90
2018-06-10T19:56:07.729Z,99.90
2018-06-10T19:58:35.075Z,99.90
2018-06-10T20:01:02.040Z,99.90
2018-06-10T20:03:29.030Z,99.90
2018-06-10T20:05:55.994Z,99.90
2018-06-10T20:08:22.965Z,99.90
2018-06-10T20:10:50.112Z,99.90
2018-06-10T20:13:17.065Z,99.90
2018-06-10T20:15:43.990Z,99.90
2018-06-10T20:18:10.951Z,99.90
2018-06-10T20:20:37.966Z,99.90
2018-06-10T20:23:04.919Z,99.90
2018-06-10T20:25:31.875Z,99.90
2018-06-10T20:27:58.861Z,99.90
2018-06-10T20:30:25.945Z,99.90
2018-06-10T20:32:52.871Z,99.90
2018-06-10T20:35:19.818Z,99.90
2018-06-10T20:37:46.805Z,99.90
2018-06-10T20:40:14.596Z,99.90
2018-06-10T20:42:41.572Z,99.90
2018-06-10T20:45:08.503Z,99.90
2018-06-10T20:47:35.475Z,99.90
2018-06-10T20:50:02.411Z,99.90
2018-06-10T20:52:29.370Z,99.90
2018-06-10T20:54:56.334Z,99.90
2018-06-10T20:57:23.287Z,99.90
2018-06-10T20:59:50.225Z,99.90
2018-06-10T21:02:17.180Z,99.90
2018-06-10T21:04:44.167Z,99.90
2018-06-10T21:07:11.124Z,99.90
2018-06-10T21:09:38.116Z,99.90
2018-06-10T21:12:05.097Z,99.90
2018-06-10T21:14:32.025Z,99.90
2018-06-10T21:16:58.982Z,99.90
2018-06-10T21:19:25.957Z,99.90
2018-06-10T21:21:52.947Z,99.90
2018-06-10T21:24:19.928Z,99.90
2018-06-10T21:26:46.859Z,99.90
2018-06-10T21:29:13.827Z,99.90
2018-06-10T21:31:40.783Z,99.90
2018-06-10T21:34:07.730Z,99.90
2018-06-10T21:36:34.686Z,99.90
2018-06-10T21:39:01.717Z,99.90
2018-06-10T21:41:28.709Z,99.90
2018-06-10T21:43:56.089Z,99.90
2018-06-10T21:46:23.031Z,99.90
2018-06-10T21:48:50.006Z,99.90
2018-06-10T21:51:16.988Z,99.90
2018-06-10T21:53:44.352Z,99.90
2018-06-10T21:56:11.279Z,99.90
2018-06-10T21:58:38.207Z,99.90
2018-06-10T22:01:05.760Z,99.90
2018-06-10T22:03:32.719Z,99.90
2018-06-10T22:05:59.637Z,99.90
2018-06-10T22:08:26.584Z,99.90
2018-06-10T22:10:53.520Z,99.90
2018-06-10T22:13:20.444Z,99.90
2018-06-10T22:15:47.534Z,99.90
2018-06-10T22:18:14.481Z,99.90
2018-06-10T22:20:41.494Z,99.90
2018-06-10T22:23:08.467Z,99.90
2018-06-10T22:25:35.378Z,99.90
2018-06-10T22:28:02.317Z,99.90
2018-06-10T22:30:29.335Z,99.90
2018-06-10T22:32:56.265Z,99.90
2018-06-10T22:35:23.190Z,99.90
2018-06-10T22:37:50.196Z,99.90
2018-06-10T22:40:17.131Z,99.90
2018-06-10T22:42:44.072Z,99.90
2018-06-10T22:45:11.088Z,99.90
2018-06-10T22:47:38.016Z,99.90
2018-06-10T22:50:05.053Z,99.90
2018-06-10T22:52:31.996Z,99.90
2018-06-10T22:54:58.927Z,99.90
2018-06-10T22:57:25.856Z,99.90
2018-06-10T22:59:52.790Z,99.90
2018-06-10T23:02:19.828Z,99.90
2018-06-10T23:04:46.756Z,99.90
2018-06-10T23:07:13.736Z,99.90
2018-06-10T23:09:40.663Z,99.90
2018-06-10T23:12:07.583Z,99.90
2018-06-10T23:14:34.557Z,99.90
2018-06-10T23:17:01.479Z,99.90
2018-06-10T23:19:28.398Z,99.90
2018-06-10T23:21:55.382Z,99.90
2018-06-10T23:24:22.299Z,99.90
2018-06-10T23:26:49.213Z,99.90
2018-06-10T23:29:16.152Z,99.90
2018-06-10T23:31:43.067Z,99.90
2018-06-10T23:34:09.998Z,99.90
2018-06-10T23:36:36.944Z,99.90
2018-06-10T23:39:05.847Z,99.90
2018-06-10T23:41:32.804Z,99.90
2018-06-10T23:43:59.727Z,99.90
2018-06-10T23:46:26.665Z,99.90
2018-06-10T23:48:53.567Z,99.90
2018-06-10T23:51:20.519Z,99.90
2018-06-10T23:53:47.435Z,99.90
2018-06-10T23:56:14.398Z,99.90
2018-06-10T23:58:41.343Z,99.90
